createdAt,value
2023-05-14T00:01:54.611Z,60.50
2023-05-14T00:04:21.570Z,60.50
2023-05-14T00:06:48.416Z,60.60
2023-05-14T00:09:15.244Z,60.70
2023-05-14T00:11:42.128Z,60.80
2023-05-14T00:14:08.936Z,60.80
2023-05-14T00:16:36.127Z,60.90
2023-05-14T00:19:03.734Z,61.00
2023-05-14T00:21:31.560Z,61.10
2023-05-14T00:23:58.433Z,61.10
2023-05-14T00:26:25.412Z,61.20
2023-05-14T00:28:52.565Z,61.20
2023-05-14T00:31:19.391Z,61.30
2023-05-14T00:33:46.341Z,61.50
2023-05-14T00:36:13.177Z,61.60
2023-05-14T00:38:40.489Z,61.60
2023-05-14T00:41:08.093Z,61.80
2023-05-14T00:43:34.947Z,61.70
2023-05-14T00:46:02.103Z,62.10
2023-05-14T00:48:29.318Z,61.90
2023-05-14T00:50:56.400Z,61.90
2023-05-14T00:53:23.747Z,62.00
2023-05-14T00:55:50.896Z,62.20
2023-05-14T00:58:18.904Z,62.10
2023-05-14T01:00:46.010Z,62.20
2023-05-14T01:03:13.044Z,62.30
2023-05-14T01:05:47.192Z,62.30
2023-05-14T01:08:46.639Z,62.70
2023-05-14T01:11:22.482Z,63.10
2023-05-14T01:14:10.688Z,62.80
2023-05-14T01:16:39.353Z,63.20
2023-05-14T01:19:18.599Z,62.60
2023-05-14T01:21:45.646Z,62.80
2023-05-14T01:24:12.758Z,62.60
2023-05-14T01:26:39.815Z,62.70
2023-05-14T01:29:19.281Z,62.60
2023-05-14T01:31:48.896Z,63.10
2023-05-14T01:34:19.797Z,62.80
2023-05-14T01:36:48.177Z,62.90
2023-05-14T01:39:15.764Z,62.80
2023-05-14T01:41:44.040Z,62.90
2023-05-14T01:44:11.838Z,63.00
2023-05-14T01:46:38.839Z,63.10
2023-05-14T01:49:05.745Z,63.00
2023-05-14T01:51:32.704Z,63.10
2023-05-14T01:53:59.501Z,63.20
2023-05-14T01:56:27.098Z,63.40
2023-05-14T01:58:55.562Z,63.70
2023-05-14T02:01:22.906Z,64.20
2023-05-14T02:03:49.828Z,63.50
2023-05-14T02:06:16.657Z,63.60
2023-05-14T02:08:43.427Z,63.70
2023-05-14T02:11:10.257Z,63.70
2023-05-14T02:13:37.142Z,63.80
2023-05-14T02:16:04.733Z,63.90
2023-05-14T02:18:31.613Z,64.00
2023-05-14T02:20:58.545Z,64.10
2023-05-14T02:23:34.036Z,64.10
2023-05-14T02:26:05.048Z,64.00
2023-05-14T02:28:31.872Z,63.90
2023-05-14T02:31:01.188Z,64.80
2023-05-14T02:33:28.386Z,64.10
2023-05-14T02:35:55.388Z,64.30
2023-05-14T02:38:23.382Z,64.70
2023-05-14T02:40:50.300Z,64.40
2023-05-14T02:43:17.128Z,65.00
2023-05-14T02:45:43.965Z,64.60
2023-05-14T02:48:10.961Z,64.40
2023-05-14T02:50:37.781Z,64.80
2023-05-14T02:53:04.658Z,64.70
2023-05-14T02:55:31.550Z,64.60
2023-05-14T02:57:58.477Z,64.50
2023-05-14T03:00:25.600Z,64.60
2023-05-14T03:02:53.165Z,65.40
2023-05-14T03:05:20.805Z,64.60
2023-05-14T03:07:47.691Z,65.10
2023-05-14T03:10:15.311Z,64.50
2023-05-14T03:12:42.538Z,64.50
2023-05-14T03:15:09.988Z,65.30
2023-05-14T03:17:36.908Z,63.50
2023-05-14T03:20:04.045Z,64.70
2023-05-14T03:22:30.870Z,64.70
2023-05-14T03:24:57.741Z,65.80
2023-05-14T03:27:24.681Z,64.80
2023-05-14T03:29:51.959Z,64.70
2023-05-14T03:32:19.775Z,64.80
2023-05-14T03:34:46.706Z,65.00
2023-05-14T03:37:13.645Z,65.00
2023-05-14T03:39:40.483Z,65.10
2023-05-14T03:42:07.380Z,65.00
2023-05-14T03:44:34.273Z,65.00
2023-05-14T03:47:01.112Z,65.30
2023-05-14T03:49:28.017Z,65.10
2023-05-14T03:51:56.056Z,65.20
2023-05-14T03:54:22.940Z,65.10
2023-05-14T03:56:49.717Z,65.20
2023-05-14T03:59:16.565Z,65.30
2023-05-14T04:01:43.989Z,65.80
2023-05-14T04:04:10.894Z,65.50
2023-05-14T04:06:37.992Z,65.50
2023-05-14T04:09:04.830Z,65.70
2023-05-14T04:11:31.669Z,65.80
2023-05-14T04:13:59.640Z,65.80
2023-05-14T04:16:26.643Z,66.90
2023-05-14T04:18:53.621Z,65.90
2023-05-14T04:21:21.427Z,66.00
2023-05-14T04:23:48.380Z,66.40
2023-05-14T04:26:15.617Z,66.20
2023-05-14T04:28:42.432Z,67.00
2023-05-14T04:31:09.233Z,66.10
2023-05-14T04:33:36.034Z,66.20
2023-05-14T04:36:02.924Z,66.50
2023-05-14T04:38:30.097Z,66.30
2023-05-14T04:40:56.996Z,67.00
2023-05-14T04:43:24.326Z,66.50
2023-05-14T04:45:52.417Z,67.70
2023-05-14T04:48:19.274Z,67.50
2023-05-14T04:50:46.194Z,66.70
2023-05-14T04:53:12.946Z,66.80
2023-05-14T04:55:39.805Z,66.90
2023-05-14T04:58:07.261Z,66.90
2023-05-14T05:00:34.621Z,67.10
2023-05-14T05:03:01.511Z,67.30
2023-05-14T05:05:28.348Z,67.30
2023-05-14T05:07:55.510Z,67.40
2023-05-14T05:10:22.644Z,67.40
2023-05-14T05:12:49.976Z,67.40
2023-05-14T05:15:16.985Z,67.50
2023-05-14T05:17:43.848Z,68.00
2023-05-14T05:20:11.280Z,67.90
2023-05-14T05:22:38.143Z,68.20
2023-05-14T05:25:06.410Z,68.30
2023-05-14T05:27:33.456Z,68.60
2023-05-14T05:30:02.201Z,69.30
2023-05-14T05:32:29.182Z,69.00
2023-05-14T05:34:56.315Z,69.10
2023-05-14T05:37:23.170Z,69.80
2023-05-14T05:39:49.949Z,71.30
2023-05-14T05:42:16.728Z,69.80
2023-05-14T05:44:43.558Z,69.70
2023-05-14T05:47:10.472Z,69.20
2023-05-14T05:49:37.773Z,69.20
2023-05-14T05:52:04.904Z,69.40
2023-05-14T05:54:34.744Z,69.20
2023-05-14T05:57:01.536Z,70.30
2023-05-14T05:59:28.342Z,66.10
2023-05-14T06:01:55.677Z,69.40
2023-05-14T06:04:22.520Z,69.20
2023-05-14T06:06:49.315Z,69.20
2023-05-14T06:09:16.201Z,69.20
2023-05-14T06:11:43.120Z,69.00
2023-05-14T06:14:10.044Z,68.80
2023-05-14T06:16:36.982Z,68.70
2023-05-14T06:19:03.883Z,68.40
2023-05-14T06:21:30.892Z,68.40
2023-05-14T06:23:58.092Z,68.10
2023-05-14T06:26:25.132Z,68.20
2023-05-14T06:28:52.172Z,67.40
2023-05-14T06:31:21.764Z,67.00
2023-05-14T06:33:48.611Z,66.70
2023-05-14T06:36:15.516Z,66.40
2023-05-14T06:38:42.318Z,66.10
2023-05-14T06:41:09.078Z,65.80
2023-05-14T06:43:35.949Z,65.60
2023-05-14T06:46:02.836Z,65.40
2023-05-14T06:48:30.817Z,65.60
2023-05-14T06:50:58.232Z,65.00
2023-05-14T06:53:25.051Z,65.00
2023-05-14T06:55:51.896Z,65.10
2023-05-14T06:58:18.753Z,65.00
2023-05-14T07:00:45.634Z,65.00
2023-05-14T07:03:12.444Z,65.00
2023-05-14T07:05:40.852Z,65.00
2023-05-14T07:08:07.693Z,64.80
2023-05-14T07:10:34.598Z,64.90
2023-05-14T07:13:02.514Z,64.80
2023-05-14T07:15:30.038Z,64.70
2023-05-14T07:17:57.244Z,64.70
2023-05-14T07:20:24.597Z,66.20
2023-05-14T07:22:52.808Z,64.50
2023-05-14T07:25:19.836Z,65.20
2023-05-14T07:27:46.616Z,64.50
2023-05-14T07:30:13.700Z,64.50
2023-05-14T07:32:41.142Z,64.60
2023-05-14T07:35:09.127Z,64.60
2023-05-14T07:37:36.219Z,64.40
2023-05-14T07:40:03.327Z,64.50
2023-05-14T07:42:36.608Z,64.40
2023-05-14T07:45:05.126Z,64.30
2023-05-14T07:47:32.188Z,64.30
2023-05-14T07:49:59.572Z,64.30
2023-05-14T07:52:26.471Z,64.10
2023-05-14T07:54:53.542Z,64.30
2023-05-14T07:57:20.551Z,64.10
2023-05-14T07:59:48.280Z,64.00
2023-05-14T08:02:16.985Z,63.90
2023-05-14T08:04:44.230Z,63.90
2023-05-14T08:07:11.197Z,63.90
2023-05-14T08:09:38.085Z,64.60
2023-05-14T08:12:05.540Z,63.90
2023-05-14T08:14:32.450Z,63.80
2023-05-14T08:16:59.369Z,63.70
2023-05-14T08:19:27.871Z,63.70
2023-05-14T08:21:54.886Z,63.70
2023-05-14T08:24:21.868Z,63.60
2023-05-14T08:26:48.730Z,63.60
2023-05-14T08:29:16.691Z,63.50
2023-05-14T08:31:43.934Z,63.60
2023-05-14T08:34:11.298Z,63.70
2023-05-14T08:36:44.666Z,63.70
2023-05-14T08:39:11.605Z,62.90
2023-05-14T08:41:39.940Z,63.50
2023-05-14T08:44:27.265Z,63.10
2023-05-14T08:46:54.637Z,63.20
2023-05-14T08:49:40.729Z,63.10
2023-05-14T08:52:11.458Z,63.00
2023-05-14T08:54:39.812Z,63.10
2023-05-14T08:57:11.379Z,63.30
2023-05-14T08:59:38.227Z,62.80
2023-05-14T09:02:07.054Z,62.90
2023-05-14T09:04:35.086Z,62.90
2023-05-14T09:07:04.104Z,62.90
2023-05-14T09:09:31.687Z,63.20
2023-05-14T09:11:58.657Z,63.10
2023-05-14T09:14:25.567Z,63.20
2023-05-14T09:16:52.947Z,63.20
2023-05-14T09:19:20.871Z,63.00
2023-05-14T09:21:50.276Z,62.80
2023-05-14T09:24:26.011Z,62.70
2023-05-14T09:26:55.011Z,62.30
2023-05-14T09:29:24.275Z,62.40
2023-05-14T09:31:52.053Z,62.30
2023-05-14T09:34:26.231Z,62.10
2023-05-14T09:37:05.076Z,61.30
2023-05-14T09:39:33.502Z,60.40
2023-05-14T09:42:00.607Z,61.00
2023-05-14T09:44:28.010Z,60.80
2023-05-14T09:46:55.475Z,60.60
2023-05-14T09:49:22.693Z,60.20
2023-05-14T09:51:50.086Z,60.00
2023-05-14T09:54:17.524Z,59.80
2023-05-14T09:56:44.902Z,59.70
2023-05-14T09:59:11.957Z,59.40
2023-05-14T10:01:40.416Z,59.20
2023-05-14T10:04:09.826Z,58.90
2023-05-14T10:06:38.159Z,58.60
2023-05-14T10:09:09.499Z,58.70
2023-05-14T10:11:38.818Z,58.50
2023-05-14T10:14:18.615Z,57.80
2023-05-14T10:16:51.124Z,57.00
2023-05-14T10:19:21.599Z,56.90
2023-05-14T10:21:55.730Z,56.20
2023-05-14T10:24:23.124Z,56.10
2023-05-14T10:26:50.135Z,56.30
2023-05-14T10:29:16.923Z,56.20
2023-05-14T10:31:54.623Z,56.00
2023-05-14T10:34:41.492Z,55.10
2023-05-14T10:37:11.177Z,54.60
2023-05-14T10:39:57.704Z,55.30
2023-05-14T10:42:27.705Z,54.60
2023-05-14T10:44:56.783Z,54.80
2023-05-14T10:47:24.059Z,54.90
2023-05-14T10:49:54.827Z,54.90
2023-05-14T10:52:22.037Z,54.40
2023-05-14T10:54:54.230Z,54.50
2023-05-14T10:57:23.241Z,54.30
2023-05-14T10:59:55.022Z,54.00
2023-05-14T11:02:21.961Z,53.90
2023-05-14T11:05:03.905Z,53.80
2023-05-14T11:07:36.300Z,52.80
2023-05-14T11:10:06.096Z,53.30
2023-05-14T11:12:38.048Z,53.00
2023-05-14T11:15:10.539Z,52.90
2023-05-14T11:17:38.958Z,52.20
2023-05-14T11:20:06.599Z,52.10
2023-05-14T11:22:34.392Z,52.10
2023-05-14T11:25:01.372Z,52.00
2023-05-14T11:27:28.211Z,51.90
2023-05-14T11:29:56.015Z,52.10
2023-05-14T11:32:22.972Z,52.30
2023-05-14T11:34:50.435Z,52.40
2023-05-14T11:37:17.932Z,52.30
2023-05-14T11:39:50.072Z,52.30
2023-05-14T11:42:19.007Z,51.90
2023-05-14T11:44:49.141Z,51.90
2023-05-14T11:47:18.699Z,52.10
2023-05-14T11:49:46.293Z,52.20
2023-05-14T11:52:14.898Z,51.30
2023-05-14T11:54:43.905Z,52.00
2023-05-14T11:57:13.768Z,53.40
2023-05-14T11:59:41.356Z,51.70
2023-05-14T12:02:13.212Z,51.90
2023-05-14T12:04:41.856Z,51.70
2023-05-14T12:07:14.598Z,52.10
2023-05-14T12:09:50.091Z,51.70
2023-05-14T12:12:21.544Z,51.80
2023-05-14T12:14:49.648Z,51.40
2023-05-14T12:17:18.821Z,51.40
2023-05-14T12:19:47.435Z,51.00
2023-05-14T12:22:19.137Z,51.20
2023-05-14T12:24:59.774Z,50.70
2023-05-14T12:27:28.816Z,49.50
2023-05-14T12:30:20.587Z,50.00
2023-05-14T12:32:53.152Z,49.10
2023-05-14T12:35:21.387Z,49.70
2023-05-14T12:37:48.314Z,49.60
2023-05-14T12:40:15.372Z,49.70
2023-05-14T12:42:42.429Z,50.20
2023-05-14T12:45:09.609Z,49.00
2023-05-14T12:47:37.214Z,48.70
2023-05-14T12:50:04.815Z,48.50
2023-05-14T12:55:01.522Z,48.50
2023-05-14T12:57:29.753Z,47.40
2023-05-14T12:59:57.298Z,47.20
2023-05-14T13:02:24.065Z,46.90
2023-05-14T13:04:50.871Z,46.80
2023-05-14T13:07:17.680Z,46.60
2023-05-14T13:09:44.581Z,46.40
2023-05-14T13:12:11.404Z,46.20
2023-05-14T13:14:38.209Z,46.20
2023-05-14T13:17:05.687Z,46.30
2023-05-14T13:19:32.628Z,46.20
2023-05-14T13:21:59.424Z,46.10
2023-05-14T13:24:26.280Z,46.40
2023-05-14T13:26:53.248Z,46.30
2023-05-14T13:29:20.459Z,46.50
2023-05-14T13:31:48.393Z,46.80
2023-05-14T13:34:15.522Z,46.60
2023-05-14T13:36:43.596Z,46.70
2023-05-14T13:39:14.445Z,46.80
2023-05-14T13:41:42.229Z,46.80
2023-05-14T13:44:09.024Z,46.90
2023-05-14T13:46:35.967Z,47.00
2023-05-14T13:49:02.940Z,46.90
2023-05-14T13:51:29.977Z,47.00
2023-05-14T13:53:56.861Z,46.70
2023-05-14T13:56:23.709Z,47.20
2023-05-14T13:58:50.581Z,47.10
2023-05-14T14:01:17.407Z,47.30
2023-05-14T14:03:44.195Z,47.40
2023-05-14T14:06:11.312Z,47.20
2023-05-14T14:08:38.077Z,46.70
2023-05-14T14:11:04.995Z,46.10
2023-05-14T14:13:31.837Z,45.70
2023-05-14T14:15:58.807Z,45.30
2023-05-14T14:18:25.721Z,45.00
2023-05-14T14:20:52.583Z,44.70
2023-05-14T14:23:19.698Z,44.60
2023-05-14T14:25:46.983Z,44.50
2023-05-14T14:28:14.115Z,44.20
2023-05-14T14:30:41.146Z,43.80
2023-05-14T14:33:08.256Z,43.60
2023-05-14T14:35:35.856Z,43.50
2023-05-14T14:38:02.809Z,43.50
2023-05-14T14:40:29.942Z,43.50
2023-05-14T14:42:56.762Z,43.10
2023-05-14T14:45:23.762Z,43.00
2023-05-14T14:47:50.936Z,42.40
2023-05-14T14:50:17.871Z,42.10
2023-05-14T14:52:46.065Z,42.10
2023-05-14T14:55:13.189Z,41.20
2023-05-14T14:57:40.217Z,41.00
2023-05-14T15:00:07.626Z,41.00
2023-05-14T15:02:34.972Z,40.90
2023-05-14T15:05:01.928Z,40.60
2023-05-14T15:07:32.755Z,40.60
2023-05-14T15:09:59.627Z,40.30
2023-05-14T15:12:26.388Z,40.00
2023-05-14T15:14:53.171Z,39.50
2023-05-14T15:17:19.988Z,39.40
2023-05-14T15:19:47.543Z,39.20
2023-05-14T15:22:14.427Z,39.30
2023-05-14T15:24:41.198Z,38.80
2023-05-14T15:27:08.016Z,38.80
2023-05-14T15:29:34.875Z,40.00
2023-05-14T15:32:02.366Z,38.30
2023-05-14T15:34:29.283Z,38.50
2023-05-14T15:36:56.030Z,38.20
2023-05-14T15:39:22.967Z,38.30
2023-05-14T15:41:49.913Z,38.20
2023-05-14T15:44:16.719Z,38.20
2023-05-14T15:46:43.566Z,37.30
2023-05-14T15:49:10.907Z,37.10
2023-05-14T15:51:37.788Z,36.80
2023-05-14T15:54:04.945Z,37.00
2023-05-14T15:56:31.810Z,36.50
2023-05-14T15:58:58.565Z,36.50
2023-05-14T16:01:25.415Z,36.80
2023-05-14T16:03:53.042Z,36.60
2023-05-14T16:06:19.907Z,36.30
2023-05-14T16:08:46.690Z,36.10
2023-05-14T16:11:14.885Z,38.10
2023-05-14T16:13:41.670Z,36.10
2023-05-14T16:16:08.627Z,35.70
2023-05-14T16:18:35.503Z,35.40
2023-05-14T16:21:02.401Z,35.60
2023-05-14T16:23:29.232Z,36.10
2023-05-14T16:25:56.094Z,35.80
2023-05-14T16:28:22.994Z,36.10
2023-05-14T16:30:49.914Z,35.90
2023-05-14T16:33:16.684Z,35.80
2023-05-14T16:35:45.358Z,35.60
2023-05-14T16:38:12.175Z,35.50
2023-05-14T16:40:38.967Z,35.40
2023-05-14T16:43:05.970Z,35.60
2023-05-14T16:45:34.813Z,35.10
2023-05-14T16:48:01.706Z,34.70
2023-05-14T16:50:28.819Z,34.70
2023-05-14T16:52:55.700Z,34.70
2023-05-14T16:55:22.969Z,34.50
2023-05-14T16:57:49.903Z,34.00
2023-05-14T17:00:16.958Z,33.70
2023-05-14T17:02:43.926Z,33.60
2023-05-14T17:05:10.745Z,33.50
2023-05-14T17:07:39.215Z,33.60
2023-05-14T17:10:07.275Z,33.60
2023-05-14T17:12:34.068Z,33.60
2023-05-14T17:15:03.660Z,33.80
2023-05-14T17:17:32.728Z,33.90
2023-05-14T17:20:00.217Z,33.90
2023-05-14T17:22:27.310Z,34.10
2023-05-14T17:24:54.355Z,34.20
2023-05-14T17:27:21.260Z,34.50
2023-05-14T17:29:50.980Z,34.50
2023-05-14T17:32:18.408Z,34.60
2023-05-14T17:34:45.304Z,34.70
2023-05-14T17:37:12.303Z,34.00
2023-05-14T17:39:39.136Z,35.00
2023-05-14T17:42:06.670Z,35.00
2023-05-14T17:44:33.505Z,35.10
2023-05-14T17:47:00.821Z,35.00
2023-05-14T17:49:28.243Z,34.80
2023-05-14T17:51:55.030Z,34.70
2023-05-14T17:54:21.854Z,34.80
2023-05-14T17:56:50.916Z,34.80
2023-05-14T17:59:17.941Z,34.70
2023-05-14T18:01:45.000Z,34.80
2023-05-14T18:04:11.842Z,35.00
2023-05-14T18:06:38.786Z,35.10
2023-05-14T18:09:05.684Z,35.30
2023-05-14T18:11:35.579Z,35.60
2023-05-14T18:14:02.863Z,35.80
2023-05-14T18:16:30.674Z,36.00
2023-05-14T18:18:57.611Z,36.20
2023-05-14T18:21:24.421Z,36.30
2023-05-14T18:23:51.588Z,36.20
2023-05-14T18:26:18.637Z,36.40
2023-05-14T18:28:45.591Z,37.60
2023-05-14T18:31:12.446Z,36.90
2023-05-14T18:33:39.427Z,37.00
2023-05-14T18:36:06.786Z,37.10
2023-05-14T18:38:33.642Z,37.00
2023-05-14T18:41:00.751Z,37.20
2023-05-14T18:43:27.594Z,37.50
2023-05-14T18:45:54.389Z,37.70
2023-05-14T18:48:21.158Z,37.90
2023-05-14T18:50:47.927Z,38.00
2023-05-14T18:53:15.007Z,38.30
2023-05-14T18:55:41.846Z,38.70
2023-05-14T18:58:08.805Z,38.80
2023-05-14T19:00:35.604Z,38.80
2023-05-14T19:03:02.592Z,39.20
2023-05-14T19:05:29.683Z,39.30
2023-05-14T19:07:57.144Z,39.50
2023-05-14T19:10:24.023Z,39.70
2023-05-14T19:12:50.816Z,39.80
2023-05-14T19:15:17.732Z,40.30
2023-05-14T19:17:44.903Z,40.50
2023-05-14T19:20:13.317Z,40.60
2023-05-14T19:22:40.241Z,40.90
2023-05-14T19:25:08.159Z,41.10
2023-05-14T19:27:37.474Z,41.20
2023-05-14T19:30:04.901Z,41.60
2023-05-14T19:32:31.678Z,41.60
2023-05-14T19:34:58.479Z,42.00
2023-05-14T19:37:26.206Z,42.10
2023-05-14T19:39:52.973Z,42.30
2023-05-14T19:42:19.973Z,42.70
2023-05-14T19:44:46.729Z,42.80
2023-05-14T19:47:13.896Z,43.00
2023-05-14T19:49:40.811Z,43.20
2023-05-14T19:52:07.868Z,43.40
2023-05-14T19:54:35.992Z,43.60
2023-05-14T19:57:03.474Z,43.80
2023-05-14T19:59:30.915Z,43.70
2023-05-14T20:01:57.853Z,43.80
2023-05-14T20:04:26.740Z,43.90
2023-05-14T20:06:57.181Z,44.10
2023-05-14T20:09:24.958Z,44.10
2023-05-14T20:11:51.741Z,44.00
2023-05-14T20:14:18.522Z,44.10
2023-05-14T20:16:46.990Z,44.10
2023-05-14T20:19:14.285Z,44.20
2023-05-14T20:21:41.119Z,44.30
2023-05-14T20:24:08.160Z,44.20
2023-05-14T20:26:35.201Z,44.20
2023-05-14T20:29:02.047Z,44.50
2023-05-14T20:31:28.941Z,44.50
2023-05-14T20:33:55.880Z,44.70
2023-05-14T20:36:22.650Z,44.70
2023-05-14T20:38:49.492Z,44.90
2023-05-14T20:41:16.358Z,45.10
2023-05-14T20:43:43.120Z,45.30
2023-05-14T20:46:10.022Z,45.50
2023-05-14T20:48:36.908Z,45.50
2023-05-14T20:51:06.709Z,45.50
2023-05-14T20:53:33.782Z,45.60
2023-05-14T20:56:01.303Z,45.80
2023-05-14T20:58:28.122Z,46.20
2023-05-14T21:00:54.929Z,46.30
2023-05-14T21:03:21.966Z,46.40
2023-05-14T21:05:48.810Z,46.50
2023-05-14T21:08:16.576Z,46.80
2023-05-14T21:10:43.419Z,46.80
2023-05-14T21:13:10.190Z,47.00
2023-05-14T21:15:37.160Z,47.00
2023-05-14T21:18:04.151Z,47.20
2023-05-14T21:20:31.007Z,47.20
2023-05-14T21:22:57.836Z,47.40
2023-05-14T21:25:24.784Z,47.20
2023-05-14T21:27:51.741Z,47.50
2023-05-14T21:30:18.561Z,47.60
2023-05-14T21:32:45.450Z,47.60
2023-05-14T21:35:12.241Z,47.80
2023-05-14T21:37:39.830Z,47.90
2023-05-14T21:40:15.012Z,48.00
2023-05-14T21:42:41.980Z,48.20
2023-05-14T21:45:09.134Z,48.30
2023-05-14T21:47:36.969Z,48.30
2023-05-14T21:50:04.921Z,48.70
2023-05-14T21:52:31.707Z,48.60
2023-05-14T21:54:58.487Z,50.40
2023-05-14T21:57:28.228Z,48.60
2023-05-14T21:59:55.910Z,48.90
2023-05-14T22:02:22.856Z,48.90
2023-05-14T22:04:50.590Z,49.00
2023-05-14T22:07:17.398Z,49.10
2023-05-14T22:09:44.364Z,49.50
2023-05-14T22:12:11.799Z,49.50
2023-05-14T22:14:38.905Z,49.60
2023-05-14T22:17:05.818Z,49.90
2023-05-14T22:19:33.182Z,49.90
2023-05-14T22:22:00.089Z,50.00
2023-05-14T22:24:26.922Z,50.40
2023-05-14T22:26:53.709Z,50.30
2023-05-14T22:29:20.520Z,50.40
2023-05-14T22:31:47.374Z,50.60
2023-05-14T22:34:14.295Z,50.50
2023-05-14T22:36:41.063Z,50.60
2023-05-14T22:39:07.969Z,50.60
2023-05-14T22:41:35.378Z,50.60
2023-05-14T22:44:02.157Z,50.80
2023-05-14T22:46:29.679Z,50.90
2023-05-14T22:48:56.783Z,51.00
2023-05-14T22:51:23.615Z,51.30
2023-05-14T22:53:50.399Z,51.40
2023-05-14T22:56:17.336Z,51.40
2023-05-14T22:58:44.219Z,51.50
2023-05-14T23:01:11.215Z,51.60
2023-05-14T23:03:38.010Z,51.70
2023-05-14T23:06:05.145Z,51.90
2023-05-14T23:08:31.945Z,52.00
2023-05-14T23:10:58.809Z,52.20
2023-05-14T23:13:25.664Z,52.30
2023-05-14T23:15:52.524Z,52.40
2023-05-14T23:18:19.664Z,52.50
2023-05-14T23:20:46.535Z,52.40
2023-05-14T23:23:13.299Z,52.40
2023-05-14T23:25:40.084Z,52.30
2023-05-14T23:28:07.140Z,52.30
2023-05-14T23:30:34.060Z,52.50
2023-05-14T23:33:00.971Z,52.40
2023-05-14T23:35:28.033Z,52.60
2023-05-14T23:37:55.355Z,52.70
2023-05-14T23:40:22.348Z,52.70
2023-05-14T23:42:49.327Z,52.90
2023-05-14T23:45:16.193Z,53.00
2023-05-14T23:47:43.241Z,53.00
2023-05-14T23:50:10.236Z,53.10
2023-05-14T23:52:37.065Z,53.10
2023-05-14T23:55:04.346Z,53.20
2023-05-14T23:57:31.348Z,53.20
2023-05-14T23:59:58.669Z,53.40
